createdAt,value
2022-08-29T00:00:24.818Z,88.80
2022-08-29T00:01:19.921Z,89.07
2022-08-29T00:02:14.968Z,89.12
2022-08-29T00:03:09.915Z,88.96
2022-08-29T00:04:05.086Z,88.97
2022-08-29T00:05:00.091Z,88.90
2022-08-29T00:05:55.166Z,88.88
2022-08-29T00:06:50.286Z,88.79
2022-08-29T00:07:45.360Z,88.86
2022-08-29T00:08:40.483Z,89.03
2022-08-29T00:09:35.560Z,89.03
2022-08-29T00:10:30.658Z,88.97
2022-08-29T00:11:28.705Z,89.08
2022-08-29T00:12:23.806Z,89.06
2022-08-29T00:13:18.892Z,88.91
2022-08-29T00:14:15.525Z,89.04
2022-08-29T00:15:09.984Z,89.11
2022-08-29T00:16:04.004Z,89.32
2022-08-29T00:16:59.130Z,89.21
2022-08-29T00:17:54.209Z,89.19
2022-08-29T00:18:49.237Z,89.12
2022-08-29T00:19:44.297Z,89.13
2022-08-29T00:20:39.405Z,89.11
2022-08-29T00:21:35.032Z,89.15
2022-08-29T00:22:30.270Z,88.91
2022-08-29T00:23:25.563Z,88.81
2022-08-29T00:24:20.789Z,88.58
2022-08-29T00:25:16.173Z,88.58
2022-08-29T00:26:11.430Z,88.64
2022-08-29T00:27:06.697Z,88.68
2022-08-29T00:28:02.060Z,88.75
2022-08-29T00:28:57.164Z,88.75
2022-08-29T00:29:52.363Z,88.75
2022-08-29T00:30:47.578Z,88.81
2022-08-29T00:31:42.849Z,88.88
2022-08-29T00:32:38.114Z,89.02
2022-08-29T00:33:33.368Z,89.08
2022-08-29T00:34:28.349Z,89.23
2022-08-29T00:35:23.430Z,89.24
2022-08-29T00:36:18.667Z,89.36
2022-08-29T00:37:13.506Z,89.35
2022-08-29T00:38:08.617Z,89.26
2022-08-29T00:39:03.638Z,88.99
2022-08-29T00:39:59.710Z,88.78
2022-08-29T00:40:53.743Z,88.68
2022-08-29T00:41:48.811Z,88.71
2022-08-29T00:42:43.925Z,88.78
2022-08-29T00:43:39.098Z,88.82
2022-08-29T00:44:34.046Z,88.73
2022-08-29T00:45:29.204Z,88.72
2022-08-29T00:46:24.290Z,88.69
2022-08-29T00:47:19.293Z,88.65
2022-08-29T00:48:14.535Z,88.68
2022-08-29T00:49:09.400Z,88.76
2022-08-29T00:50:04.489Z,88.79
2022-08-29T00:50:59.516Z,88.86
2022-08-29T00:51:54.580Z,88.82
2022-08-29T00:52:49.681Z,88.79
2022-08-29T00:53:44.906Z,88.73
2022-08-29T00:54:40.128Z,88.68
2022-08-29T00:55:35.333Z,88.79
2022-08-29T00:56:30.690Z,88.77
2022-08-29T00:57:25.935Z,88.76
2022-08-29T00:58:21.139Z,88.70
2022-08-29T00:59:16.495Z,88.63
2022-08-29T01:00:11.603Z,88.66
2022-08-29T01:01:06.888Z,88.78
2022-08-29T01:02:02.136Z,88.82
2022-08-29T01:02:57.365Z,88.82
2022-08-29T01:03:52.712Z,88.87
2022-08-29T01:04:47.958Z,88.91
2022-08-29T01:05:43.105Z,88.80
2022-08-29T01:06:38.314Z,88.59
2022-08-29T01:07:33.785Z,88.44
2022-08-29T01:08:28.930Z,88.48
2022-08-29T01:09:24.174Z,88.39
2022-08-29T01:10:19.381Z,88.50
2022-08-29T01:11:14.630Z,88.55
2022-08-29T01:12:10.623Z,88.48
2022-08-29T01:13:05.137Z,88.67
2022-08-29T01:14:00.368Z,88.70
2022-08-29T01:14:55.584Z,88.58
2022-08-29T01:15:51.024Z,88.74
2022-08-29T01:16:46.183Z,88.88
2022-08-29T01:17:41.395Z,88.98
2022-08-29T01:18:36.616Z,89.16
2022-08-29T01:19:31.875Z,89.25
2022-08-29T01:20:27.325Z,89.40
2022-08-29T01:21:22.601Z,89.62
2022-08-29T01:22:17.725Z,89.54
2022-08-29T01:23:12.932Z,89.48
2022-08-29T01:24:08.283Z,89.28
2022-08-29T01:25:03.600Z,89.15
2022-08-29T01:25:58.841Z,89.01
2022-08-29T01:26:54.039Z,88.97
2022-08-29T01:27:49.241Z,88.98
2022-08-29T01:28:44.441Z,88.96
2022-08-29T01:29:39.901Z,88.91
2022-08-29T01:30:35.873Z,88.92
2022-08-29T01:31:31.765Z,88.94
2022-08-29T01:32:26.649Z,89.08
2022-08-29T01:33:20.880Z,89.15
2022-08-29T01:34:16.099Z,89.04
2022-08-29T01:35:11.629Z,89.07
2022-08-29T01:36:06.606Z,89.09
2022-08-29T01:37:01.961Z,88.89
2022-08-29T01:37:59.069Z,88.86
2022-08-29T01:38:54.436Z,89.04
2022-08-29T01:39:49.622Z,89.24
2022-08-29T01:40:45.008Z,89.49
2022-08-29T01:41:40.190Z,89.46
2022-08-29T01:42:36.554Z,89.39
2022-08-29T01:43:30.448Z,89.40
2022-08-29T01:44:26.496Z,89.40
2022-08-29T01:45:20.615Z,89.28
2022-08-29T01:46:15.541Z,89.17
2022-08-29T01:47:10.650Z,89.14
2022-08-29T01:48:05.703Z,89.10
2022-08-29T01:49:00.923Z,88.92
2022-08-29T01:49:56.705Z,88.85
2022-08-29T01:50:52.016Z,88.73
2022-08-29T01:51:46.856Z,88.74
2022-08-29T01:52:41.969Z,88.72
2022-08-29T01:53:37.023Z,88.88
2022-08-29T01:54:32.344Z,88.76
2022-08-29T01:55:27.433Z,88.72
2022-08-29T01:56:22.581Z,88.87
2022-08-29T01:57:17.535Z,88.88
2022-08-29T01:58:12.724Z,88.82
2022-08-29T01:59:07.661Z,88.75
2022-08-29T02:00:02.923Z,88.76
2022-08-29T02:00:57.896Z,88.68
2022-08-29T02:01:52.908Z,88.57
2022-08-29T02:02:48.004Z,88.57
2022-08-29T02:03:43.065Z,88.59
2022-08-29T02:04:38.146Z,88.57
2022-08-29T02:05:33.200Z,88.32
2022-08-29T02:06:28.694Z,88.33
2022-08-29T02:07:23.576Z,88.36
2022-08-29T02:08:18.555Z,88.39
2022-08-29T02:09:13.545Z,88.28
2022-08-29T02:10:08.625Z,88.24
2022-08-29T02:11:03.696Z,88.26
2022-08-29T02:11:58.953Z,88.30
2022-08-29T02:12:54.315Z,88.39
2022-08-29T02:13:49.542Z,88.39
2022-08-29T02:14:44.778Z,88.47
2022-08-29T02:15:40.007Z,88.66
2022-08-29T02:16:35.574Z,88.79
2022-08-29T02:17:30.608Z,88.91
2022-08-29T02:18:25.816Z,89.09
2022-08-29T02:19:20.926Z,89.22
2022-08-29T02:20:15.980Z,89.30
2022-08-29T02:21:11.075Z,89.38
2022-08-29T02:22:10.066Z,89.32
2022-08-29T02:23:08.335Z,89.23
2022-08-29T02:24:15.995Z,89.24
2022-08-29T02:24:56.748Z,89.31
2022-08-29T02:25:50.992Z,89.24
2022-08-29T02:26:46.216Z,89.16
2022-08-29T02:27:41.428Z,89.15
2022-08-29T02:28:37.167Z,89.04
2022-08-29T02:29:37.162Z,89.16
2022-08-29T02:30:28.324Z,89.34
2022-08-29T02:31:22.604Z,89.44
2022-08-29T02:32:17.832Z,89.50
2022-08-29T02:33:13.025Z,89.67
2022-08-29T02:34:08.242Z,89.83
2022-08-29T02:35:03.473Z,89.72
2022-08-29T02:35:58.756Z,89.54
2022-08-29T02:36:53.939Z,89.25
2022-08-29T02:37:51.671Z,89.08
2022-08-29T02:38:46.878Z,88.86
2022-08-29T02:39:42.267Z,88.73
2022-08-29T02:40:37.420Z,88.45
2022-08-29T02:41:32.770Z,88.27
2022-08-29T02:42:28.106Z,88.30
2022-08-29T02:43:23.180Z,88.26
2022-08-29T02:44:19.904Z,88.32
2022-08-29T02:45:15.169Z,88.23
2022-08-29T02:46:10.349Z,88.22
2022-08-29T02:47:05.760Z,88.40
2022-08-29T02:48:01.004Z,88.50
2022-08-29T02:49:01.117Z,88.62
2022-08-29T02:49:52.088Z,88.65
2022-08-29T02:50:46.077Z,88.52
2022-08-29T02:51:41.165Z,88.53
2022-08-29T02:52:37.427Z,88.57
2022-08-29T02:53:31.316Z,88.51
2022-08-29T02:54:26.398Z,88.56
2022-08-29T02:55:22.994Z,88.45
2022-08-29T02:56:18.199Z,88.39
2022-08-29T02:57:13.546Z,88.52
2022-08-29T02:58:08.964Z,88.71
2022-08-29T02:59:04.177Z,88.75
2022-08-29T02:59:59.413Z,88.74
2022-08-29T03:00:54.664Z,88.72
2022-08-29T03:01:49.928Z,88.74
2022-08-29T03:02:45.160Z,88.76
2022-08-29T03:03:40.393Z,88.68
2022-08-29T03:04:35.558Z,88.62
2022-08-29T03:05:30.806Z,88.71
2022-08-29T03:06:26.023Z,88.62
2022-08-29T03:07:21.347Z,88.44
2022-08-29T03:08:16.616Z,88.49
2022-08-29T03:09:11.803Z,88.39
2022-08-29T03:10:07.037Z,88.55
2022-08-29T03:11:02.223Z,88.66
2022-08-29T03:11:57.446Z,88.64
2022-08-29T03:12:52.681Z,88.46
2022-08-29T03:13:47.837Z,88.36
2022-08-29T03:14:43.171Z,88.12
2022-08-29T03:15:38.349Z,88.08
2022-08-29T03:16:33.712Z,88.05
2022-08-29T03:17:29.063Z,88.19
2022-08-29T03:18:24.160Z,88.22
2022-08-29T03:19:19.507Z,88.29
2022-08-29T03:20:14.728Z,88.28
2022-08-29T03:21:10.049Z,88.27
2022-08-29T03:22:05.267Z,88.49
2022-08-29T03:23:00.486Z,88.58
2022-08-29T03:23:55.697Z,88.36
2022-08-29T03:24:51.177Z,88.10
2022-08-29T03:25:46.218Z,88.04
2022-08-29T03:26:41.398Z,87.83
2022-08-29T03:27:37.395Z,87.78
2022-08-29T03:28:31.939Z,87.99
2022-08-29T03:29:27.084Z,88.12
2022-08-29T03:30:23.980Z,88.09
2022-08-29T03:31:17.571Z,87.98
2022-08-29T03:32:13.194Z,87.89
2022-08-29T03:33:11.599Z,87.72
2022-08-29T03:34:03.314Z,87.68
2022-08-29T03:34:58.689Z,87.80
2022-08-29T03:35:53.853Z,87.80
2022-08-29T03:36:49.761Z,87.85
2022-08-29T03:37:44.320Z,88.00
2022-08-29T03:38:39.526Z,88.38
2022-08-29T03:39:34.724Z,88.38
2022-08-29T03:40:30.161Z,88.32
2022-08-29T03:41:25.379Z,88.33
2022-08-29T03:42:22.500Z,88.45
2022-08-29T03:43:17.793Z,88.49
2022-08-29T03:44:13.155Z,88.37
2022-08-29T03:45:08.278Z,88.35
2022-08-29T03:46:03.824Z,88.26
2022-08-29T03:46:58.915Z,87.84
2022-08-29T03:47:53.965Z,87.53
2022-08-29T03:48:48.898Z,87.49
2022-08-29T03:49:43.947Z,87.63
2022-08-29T03:50:39.040Z,87.87
2022-08-29T03:51:34.019Z,87.99
2022-08-29T03:52:29.217Z,88.35
2022-08-29T03:53:24.446Z,88.48
2022-08-29T03:54:20.253Z,88.64
2022-08-29T03:55:15.164Z,88.59
2022-08-29T03:56:10.868Z,88.51
2022-08-29T03:57:06.263Z,88.51
2022-08-29T03:58:00.286Z,88.57
2022-08-29T03:58:55.381Z,88.40
2022-08-29T03:59:54.215Z,88.35
2022-08-29T04:00:45.490Z,88.42
2022-08-29T04:01:41.007Z,88.52
2022-08-29T04:02:35.708Z,88.51
2022-08-29T04:03:31.484Z,88.44
2022-08-29T04:04:25.974Z,88.34
2022-08-29T04:05:22.062Z,88.39
2022-08-29T04:06:16.139Z,88.22
2022-08-29T04:07:10.976Z,88.18
2022-08-29T04:08:06.382Z,88.02
2022-08-29T04:09:01.177Z,88.05
2022-08-29T04:09:57.267Z,88.20
2022-08-29T04:10:52.374Z,88.25
2022-08-29T04:11:48.333Z,88.13
2022-08-29T04:12:43.497Z,88.10
2022-08-29T04:13:39.089Z,87.93
2022-08-29T04:14:34.794Z,87.99
2022-08-29T04:15:30.111Z,88.17
2022-08-29T04:16:25.566Z,88.53
2022-08-29T04:17:22.643Z,88.70
2022-08-29T04:18:21.583Z,88.66
2022-08-29T04:19:13.829Z,88.78
2022-08-29T04:20:08.021Z,89.02
2022-08-29T04:21:03.750Z,88.90
2022-08-29T04:21:59.180Z,88.81
2022-08-29T04:22:54.596Z,88.69
2022-08-29T04:23:50.286Z,88.86
2022-08-29T04:24:45.569Z,88.84
2022-08-29T04:25:41.186Z,88.58
2022-08-29T04:26:37.624Z,88.25
2022-08-29T04:27:31.924Z,88.20
2022-08-29T04:28:27.482Z,88.40
2022-08-29T04:29:23.610Z,88.22
2022-08-29T04:30:19.065Z,88.14
2022-08-29T04:31:14.718Z,88.13
2022-08-29T04:32:10.108Z,88.00
2022-08-29T04:33:05.548Z,88.08
2022-08-29T04:34:01.278Z,88.01
2022-08-29T04:34:56.707Z,87.96
2022-08-29T04:35:52.684Z,88.01
2022-08-29T04:36:47.954Z,88.03
2022-08-29T04:37:43.365Z,88.01
2022-08-29T04:38:39.478Z,88.07
2022-08-29T04:39:34.626Z,88.16
2022-08-29T04:40:30.190Z,88.11
2022-08-29T04:41:26.642Z,88.16
2022-08-29T04:42:22.318Z,87.93
2022-08-29T04:43:17.758Z,87.94
2022-08-29T04:44:13.126Z,88.00
2022-08-29T04:45:08.572Z,88.14
2022-08-29T04:46:04.261Z,88.26
2022-08-29T04:46:59.922Z,88.35
2022-08-29T04:47:55.466Z,88.59
2022-08-29T04:48:50.846Z,88.66
2022-08-29T04:49:46.267Z,88.71
2022-08-29T04:50:42.028Z,88.76
2022-08-29T04:51:37.300Z,88.54
2022-08-29T04:52:32.690Z,88.33
2022-08-29T04:53:29.047Z,88.28
2022-08-29T04:54:24.418Z,88.32
2022-08-29T04:55:22.551Z,88.36
2022-08-29T04:56:16.623Z,88.40
2022-08-29T04:57:11.290Z,88.51
2022-08-29T04:58:07.514Z,88.70
2022-08-29T04:59:02.937Z,88.67
2022-08-29T04:59:58.692Z,88.66
2022-08-29T05:00:54.329Z,88.71
2022-08-29T05:01:49.698Z,88.85
2022-08-29T05:02:46.242Z,88.80
2022-08-29T05:03:41.667Z,88.68
2022-08-29T05:04:37.106Z,88.72
2022-08-29T05:05:32.590Z,88.68
2022-08-29T05:06:28.318Z,88.63
2022-08-29T05:07:23.725Z,88.56
2022-08-29T05:08:19.183Z,88.40
2022-08-29T05:09:14.905Z,88.25
2022-08-29T05:10:10.399Z,88.08
2022-08-29T05:11:06.063Z,87.93
2022-08-29T05:12:01.515Z,87.73
2022-08-29T05:12:56.934Z,87.68
2022-08-29T05:13:52.756Z,87.69
2022-08-29T05:14:48.244Z,87.82
2022-08-29T05:15:43.690Z,87.88
2022-08-29T05:16:40.062Z,87.95
2022-08-29T05:17:35.551Z,88.00
2022-08-29T05:18:31.263Z,88.03
2022-08-29T05:19:26.700Z,87.95
2022-08-29T05:20:22.197Z,88.11
2022-08-29T05:21:18.051Z,88.07
2022-08-29T05:22:13.474Z,88.01
2022-08-29T05:23:08.936Z,87.90
2022-08-29T05:24:04.353Z,87.93
2022-08-29T05:24:59.839Z,87.92
2022-08-29T05:25:55.004Z,87.87
2022-08-29T05:26:49.875Z,87.92
2022-08-29T05:27:44.928Z,87.89
2022-08-29T05:28:40.040Z,87.88
2022-08-29T05:29:35.750Z,87.70
2022-08-29T05:30:34.216Z,87.54
2022-08-29T05:31:26.989Z,87.57
2022-08-29T05:32:21.357Z,87.63
2022-08-29T05:33:17.235Z,87.62
2022-08-29T05:34:34.191Z,87.57
2022-08-29T05:35:10.213Z,87.54
2022-08-29T05:36:04.223Z,87.52
2022-08-29T05:37:00.015Z,87.56
2022-08-29T05:37:55.535Z,87.55
2022-08-29T05:38:51.167Z,87.53
2022-08-29T05:39:46.696Z,87.44
2022-08-29T05:40:42.264Z,87.31
2022-08-29T05:41:38.638Z,87.31
2022-08-29T05:42:33.303Z,87.31
2022-08-29T05:43:28.804Z,87.30
2022-08-29T05:44:25.142Z,87.31
2022-08-29T05:45:20.519Z,87.42
2022-08-29T05:46:20.087Z,87.45
2022-08-29T05:47:12.331Z,87.60
2022-08-29T05:48:08.632Z,87.75
2022-08-29T05:49:04.308Z,87.78
2022-08-29T05:49:59.161Z,87.73
2022-08-29T05:50:54.662Z,87.68
2022-08-29T05:51:50.377Z,87.71
2022-08-29T05:52:46.040Z,87.73
2022-08-29T05:53:41.657Z,87.73
2022-08-29T05:54:37.064Z,87.79
2022-08-29T05:55:32.421Z,87.78
2022-08-29T05:56:28.374Z,87.78
2022-08-29T05:57:23.856Z,87.64
2022-08-29T05:58:19.451Z,87.55
2022-08-29T05:59:15.639Z,87.55
2022-08-29T06:00:11.331Z,87.58
2022-08-29T06:01:07.058Z,87.55
2022-08-29T06:02:02.568Z,87.48
2022-08-29T06:02:58.161Z,87.37
2022-08-29T06:03:53.907Z,87.24
2022-08-29T06:04:49.286Z,87.13
2022-08-29T06:05:45.244Z,87.13
2022-08-29T06:06:40.635Z,87.05
2022-08-29T06:07:36.160Z,87.02
2022-08-29T06:08:31.938Z,87.03
2022-08-29T06:09:27.315Z,86.93
2022-08-29T06:10:22.801Z,86.91
2022-08-29T06:11:19.186Z,86.79
2022-08-29T06:12:15.055Z,86.65
2022-08-29T06:13:10.143Z,86.45
2022-08-29T06:14:06.871Z,86.24
2022-08-29T06:15:02.367Z,86.10
2022-08-29T06:15:58.823Z,85.96
2022-08-29T06:16:53.662Z,85.69
2022-08-29T06:17:49.155Z,85.59
2022-08-29T06:18:44.946Z,85.36
2022-08-29T06:19:40.811Z,85.21
2022-08-29T06:20:36.272Z,85.18
2022-08-29T06:21:31.659Z,85.07
2022-08-29T06:22:27.038Z,84.67
2022-08-29T06:23:26.652Z,84.31
2022-08-29T06:24:19.460Z,84.12
2022-08-29T06:25:37.497Z,83.97
2022-08-29T06:26:09.971Z,83.69
2022-08-29T06:27:03.816Z,83.32
2022-08-29T06:27:58.924Z,82.90
2022-08-29T06:28:54.167Z,82.80
2022-08-29T06:29:49.258Z,82.56
2022-08-29T06:30:44.478Z,82.30
2022-08-29T06:31:39.439Z,82.12
2022-08-29T06:32:34.532Z,81.66
2022-08-29T06:33:29.527Z,81.45
2022-08-29T06:34:25.003Z,81.28
2022-08-29T06:35:19.684Z,81.40
2022-08-29T06:36:16.046Z,80.96
2022-08-29T06:37:11.405Z,80.50
2022-08-29T06:38:08.783Z,80.16
2022-08-29T06:39:03.414Z,80.10
2022-08-29T06:39:57.835Z,80.08
2022-08-29T06:40:53.502Z,79.74
2022-08-29T06:41:49.025Z,79.63
2022-08-29T06:42:44.654Z,79.70
2022-08-29T06:43:39.087Z,79.44
2022-08-29T06:44:34.244Z,79.26
2022-08-29T06:45:29.227Z,79.00
2022-08-29T06:46:24.302Z,78.62
2022-08-29T06:47:19.323Z,78.37
2022-08-29T06:48:15.358Z,78.27
2022-08-29T06:49:09.525Z,78.09
2022-08-29T06:50:07.827Z,77.68
2022-08-29T06:51:03.010Z,77.53
2022-08-29T06:51:58.701Z,77.29
2022-08-29T06:52:55.333Z,77.12
2022-08-29T06:53:48.069Z,77.31
2022-08-29T06:54:43.162Z,77.33
2022-08-29T06:55:38.151Z,77.18
2022-08-29T06:56:33.254Z,76.76
2022-08-29T06:57:28.279Z,76.48
2022-08-29T06:58:23.533Z,76.52
2022-08-29T06:59:19.847Z,76.47
2022-08-29T07:00:21.622Z,76.50
2022-08-29T07:01:12.192Z,76.14
2022-08-29T07:02:06.833Z,75.48
2022-08-29T07:03:02.233Z,75.11
2022-08-29T07:03:58.013Z,75.19
2022-08-29T07:04:54.229Z,75.43
2022-08-29T07:05:49.270Z,75.19
2022-08-29T07:06:44.679Z,75.89
2022-08-29T07:07:40.183Z,75.33
2022-08-29T07:08:35.832Z,74.75
2022-08-29T07:09:31.186Z,74.25
2022-08-29T07:10:26.684Z,74.83
2022-08-29T07:11:23.107Z,74.43
2022-08-29T07:12:18.485Z,73.40
2022-08-29T07:13:15.044Z,73.19
2022-08-29T07:14:09.957Z,74.01
2022-08-29T07:15:05.358Z,73.17
2022-08-29T07:16:01.197Z,72.83
2022-08-29T07:16:56.618Z,72.42
2022-08-29T07:17:56.562Z,72.83
2022-08-29T07:18:48.754Z,72.85
2022-08-29T07:19:43.752Z,72.48
2022-08-29T07:20:39.144Z,72.79
2022-08-29T07:21:35.135Z,72.32
2022-08-29T07:22:30.533Z,72.58
2022-08-29T07:23:26.238Z,72.51
2022-08-29T07:24:24.901Z,72.23
2022-08-29T07:25:17.356Z,71.85
2022-08-29T07:26:12.982Z,71.84
2022-08-29T07:27:09.409Z,71.69
2022-08-29T07:28:04.820Z,71.36
2022-08-29T07:29:00.623Z,70.72
2022-08-29T07:29:56.047Z,70.69
2022-08-29T07:30:51.543Z,70.46
2022-08-29T07:31:47.564Z,69.95
2022-08-29T07:32:42.885Z,69.99
2022-08-29T07:33:38.642Z,69.61
2022-08-29T07:34:34.094Z,69.62
2022-08-29T07:35:30.850Z,69.66
2022-08-29T07:36:25.514Z,70.03
2022-08-29T07:37:21.172Z,68.90
2022-08-29T07:38:16.463Z,68.34
2022-08-29T07:39:12.901Z,68.06
2022-08-29T07:40:08.545Z,68.29
2022-08-29T07:41:04.399Z,68.11
2022-08-29T07:41:59.876Z,67.98
2022-08-29T07:42:55.446Z,67.86
2022-08-29T07:43:51.067Z,67.49
2022-08-29T07:44:46.652Z,67.57
2022-08-29T07:45:42.511Z,67.27
2022-08-29T07:46:37.768Z,67.64
2022-08-29T07:47:33.247Z,67.70
2022-08-29T07:48:30.184Z,67.46
2022-08-29T07:49:32.447Z,67.58
2022-08-29T07:50:21.548Z,68.45
2022-08-29T07:51:17.987Z,68.52
2022-08-29T07:52:13.556Z,68.23
2022-08-29T07:53:09.115Z,68.24
2022-08-29T07:54:05.053Z,68.72
2022-08-29T07:55:00.231Z,68.99
2022-08-29T07:55:55.753Z,68.92
2022-08-29T07:56:51.923Z,68.73
2022-08-29T07:57:47.506Z,68.21
2022-08-29T07:58:43.363Z,68.44
2022-08-29T07:59:38.934Z,67.97
2022-08-29T08:00:34.360Z,68.31
2022-08-29T08:01:30.200Z,68.17
2022-08-29T08:02:25.664Z,67.81
2022-08-29T08:03:21.444Z,67.16
2022-08-29T08:04:16.723Z,66.89
2022-08-29T08:05:12.251Z,66.27
2022-08-29T08:06:08.086Z,66.27
2022-08-29T08:07:03.201Z,65.37
2022-08-29T08:08:04.729Z,65.56
2022-08-29T08:08:56.472Z,64.12
2022-08-29T08:09:50.921Z,64.33
2022-08-29T08:10:51.855Z,64.24
2022-08-29T08:11:42.694Z,64.49
2022-08-29T08:12:37.719Z,64.56
2022-08-29T08:13:32.762Z,64.25
2022-08-29T08:14:34.792Z,64.90
2022-08-29T08:15:23.912Z,65.03
2022-08-29T08:16:19.148Z,64.95
2022-08-29T08:17:14.600Z,65.01
2022-08-29T08:18:09.619Z,65.69
2022-08-29T08:19:04.739Z,65.37
2022-08-29T08:19:59.689Z,65.10
2022-08-29T08:20:54.748Z,65.44
2022-08-29T08:21:50.271Z,65.39
2022-08-29T08:22:47.457Z,65.69
2022-08-29T08:23:42.518Z,65.67
2022-08-29T08:24:37.630Z,66.08
2022-08-29T08:25:32.730Z,64.47
2022-08-29T08:26:27.751Z,63.60
2022-08-29T08:27:22.837Z,63.27
2022-08-29T08:28:18.036Z,63.57
2022-08-29T08:29:12.979Z,63.86
2022-08-29T08:30:08.995Z,62.50
2022-08-29T08:31:06.363Z,62.14
2022-08-29T08:31:59.543Z,62.55
2022-08-29T08:32:55.089Z,62.21
2022-08-29T08:33:49.461Z,62.94
2022-08-29T08:34:48.855Z,62.37
2022-08-29T08:35:46.882Z,62.18
2022-08-29T08:36:41.375Z,62.04
2022-08-29T08:37:35.546Z,62.03
2022-08-29T08:38:31.316Z,62.39
2022-08-29T08:39:26.647Z,63.15
2022-08-29T08:40:22.209Z,62.32
2022-08-29T08:41:18.125Z,62.08
2022-08-29T08:42:13.317Z,61.35
2022-08-29T08:43:08.805Z,61.59
2022-08-29T08:44:05.229Z,61.36
2022-08-29T08:45:00.525Z,60.73
2022-08-29T08:45:56.452Z,61.48
2022-08-29T08:46:51.843Z,60.57
2022-08-29T08:47:47.282Z,61.08
2022-08-29T08:48:43.057Z,61.01
2022-08-29T08:49:39.579Z,61.46
2022-08-29T08:50:34.479Z,61.25
2022-08-29T08:51:29.863Z,60.01
2022-08-29T08:52:25.321Z,60.21
2022-08-29T08:53:21.224Z,60.91
2022-08-29T08:54:16.743Z,61.24
2022-08-29T08:55:12.597Z,60.78
2022-08-29T08:56:08.614Z,60.87
2022-08-29T08:57:04.183Z,60.56
2022-08-29T08:58:00.117Z,60.53
2022-08-29T08:58:55.679Z,60.65
2022-08-29T08:59:50.870Z,60.66
2022-08-29T09:00:46.629Z,60.59
2022-08-29T09:01:42.337Z,60.17
2022-08-29T09:02:38.181Z,59.45
2022-08-29T09:03:33.514Z,59.34
2022-08-29T09:04:28.906Z,58.65
2022-08-29T09:05:24.722Z,57.47
2022-08-29T09:06:20.234Z,56.34
2022-08-29T09:07:15.784Z,56.38
2022-08-29T09:08:12.069Z,56.86
2022-08-29T09:09:08.149Z,57.07
2022-08-29T09:10:03.465Z,57.63
2022-08-29T09:10:59.336Z,57.90
2022-08-29T09:11:54.600Z,57.81
2022-08-29T09:12:51.530Z,58.25
2022-08-29T09:13:45.898Z,58.51
2022-08-29T09:14:41.610Z,58.70
2022-08-29T09:15:36.930Z,59.10
2022-08-29T09:16:32.348Z,59.38
2022-08-29T09:17:28.070Z,58.84
2022-08-29T09:18:24.166Z,59.10
2022-08-29T09:19:19.365Z,58.25
2022-08-29T09:20:16.135Z,56.91
2022-08-29T09:21:36.999Z,57.13
2022-08-29T09:22:08.383Z,57.60
2022-08-29T09:23:02.705Z,57.25
2022-08-29T09:23:58.210Z,57.81
2022-08-29T09:24:53.919Z,58.66
2022-08-29T09:25:49.448Z,57.67
2022-08-29T09:26:45.385Z,58.43
2022-08-29T09:27:41.383Z,57.33
2022-08-29T09:28:36.166Z,57.95
2022-08-29T09:29:31.566Z,58.25
2022-08-29T09:30:27.068Z,57.03
2022-08-29T09:31:22.856Z,56.73
2022-08-29T09:32:22.359Z,56.76
2022-08-29T09:33:14.365Z,56.19
2022-08-29T09:34:11.881Z,57.07
2022-08-29T09:35:08.862Z,57.63
2022-08-29T09:36:00.886Z,58.09
2022-08-29T09:36:56.134Z,57.73
2022-08-29T09:37:51.648Z,56.17
2022-08-29T09:38:47.887Z,56.05
2022-08-29T09:39:43.397Z,55.78
2022-08-29T09:40:39.403Z,55.49
2022-08-29T09:41:34.814Z,55.80
2022-08-29T09:42:30.322Z,55.72
2022-08-29T09:43:26.004Z,55.77
2022-08-29T09:44:21.519Z,56.06
2022-08-29T09:45:17.203Z,55.49
2022-08-29T09:47:37.228Z,55.78
2022-08-29T09:48:35.529Z,55.01
2022-08-29T09:49:28.143Z,56.60
2022-08-29T09:50:23.844Z,57.96
2022-08-29T09:51:19.133Z,59.51
2022-08-29T09:52:14.512Z,59.69
2022-08-29T09:53:23.713Z,59.40
2022-08-29T09:54:06.588Z,59.48
2022-08-29T09:55:01.032Z,58.93
2022-08-29T09:55:56.552Z,58.06
2022-08-29T09:56:52.063Z,58.48
2022-08-29T09:57:47.584Z,59.11
2022-08-29T09:58:43.205Z,59.73
2022-08-29T09:59:39.722Z,59.60
2022-08-29T10:00:34.062Z,59.87
2022-08-29T10:01:29.731Z,58.93
2022-08-29T10:02:25.179Z,58.32
2022-08-29T10:03:20.634Z,57.10
2022-08-29T10:04:16.122Z,57.94
2022-08-29T10:05:13.121Z,56.61
2022-08-29T10:06:07.583Z,56.45
2022-08-29T10:07:02.560Z,55.41
2022-08-29T10:07:58.076Z,54.87
2022-08-29T10:08:53.379Z,53.61
2022-08-29T10:09:48.758Z,53.27
2022-08-29T10:10:44.355Z,52.98
2022-08-29T10:11:39.873Z,53.34
2022-08-29T10:12:35.232Z,52.67
2022-08-29T10:13:30.636Z,52.44
2022-08-29T10:14:26.660Z,51.22
2022-08-29T10:15:39.861Z,52.43
2022-08-29T10:16:18.300Z,53.93
2022-08-29T10:17:12.548Z,54.12
2022-08-29T10:18:08.093Z,55.94
2022-08-29T10:19:03.493Z,55.96
2022-08-29T10:19:58.861Z,55.58
2022-08-29T10:20:54.444Z,55.15
2022-08-29T10:21:49.963Z,53.96
2022-08-29T10:22:45.600Z,53.51
2022-08-29T10:23:40.867Z,53.26
2022-08-29T10:24:36.233Z,53.62
2022-08-29T10:25:31.773Z,53.41
2022-08-29T10:26:27.501Z,53.12
2022-08-29T10:27:23.010Z,52.54
2022-08-29T10:28:18.529Z,51.73
2022-08-29T10:29:14.082Z,51.90
2022-08-29T10:30:09.782Z,51.10
2022-08-29T10:31:05.319Z,51.64
2022-08-29T10:32:00.794Z,51.42
2022-08-29T10:32:56.186Z,51.77
2022-08-29T10:33:51.707Z,51.65
2022-08-29T10:34:47.235Z,51.08
2022-08-29T10:35:42.789Z,51.80
2022-08-29T10:36:38.226Z,51.81
2022-08-29T10:37:33.749Z,51.92
2022-08-29T10:38:29.246Z,50.74
2022-08-29T10:39:24.695Z,50.17
2022-08-29T10:40:20.358Z,49.10
2022-08-29T10:41:15.759Z,47.98
2022-08-29T10:42:11.301Z,47.03
2022-08-29T10:43:06.806Z,46.73
2022-08-29T10:44:02.250Z,47.26
2022-08-29T10:44:57.755Z,47.96
2022-08-29T10:45:53.512Z,48.67
2022-08-29T10:46:48.859Z,48.69
2022-08-29T10:47:44.279Z,48.00
2022-08-29T10:48:40.695Z,48.32
2022-08-29T10:49:35.500Z,45.97
2022-08-29T10:50:46.526Z,45.94
2022-08-29T10:51:27.736Z,45.97
2022-08-29T10:52:22.178Z,45.69
2022-08-29T10:53:17.710Z,45.80
2022-08-29T10:54:13.053Z,46.32
2022-08-29T10:55:08.639Z,45.57
2022-08-29T10:56:06.872Z,44.89
2022-08-29T10:56:59.714Z,45.24
2022-08-29T10:57:55.535Z,44.82
2022-08-29T10:58:50.714Z,45.88
2022-08-29T10:59:46.002Z,46.95
2022-08-29T11:00:41.543Z,46.98
2022-08-29T11:01:36.932Z,46.26
2022-08-29T11:02:32.224Z,44.46
2022-08-29T11:03:27.774Z,44.16
2022-08-29T11:04:23.537Z,44.31
2022-08-29T11:05:18.722Z,44.90
2022-08-29T11:06:14.182Z,45.41
2022-08-29T11:07:09.755Z,45.03
2022-08-29T11:08:05.259Z,46.01
2022-08-29T11:09:00.579Z,45.30
2022-08-29T11:09:56.043Z,45.88
2022-08-29T11:10:51.403Z,45.18
2022-08-29T11:11:46.849Z,44.41
2022-08-29T11:12:42.243Z,45.12
2022-08-29T11:13:38.116Z,45.88
2022-08-29T11:14:33.181Z,46.54
2022-08-29T11:15:28.743Z,45.04
2022-08-29T11:16:24.221Z,44.63
2022-08-29T11:17:19.674Z,44.60
2022-08-29T11:18:15.565Z,44.50
2022-08-29T11:19:11.503Z,44.18
2022-08-29T11:20:05.740Z,43.57
2022-08-29T11:21:01.184Z,46.78
2022-08-29T11:21:56.939Z,44.58
2022-08-29T11:22:52.305Z,43.56
2022-08-29T11:23:47.832Z,43.29
2022-08-29T11:24:47.033Z,44.22
2022-08-29T11:25:39.014Z,42.92
2022-08-29T11:26:34.429Z,42.85
2022-08-29T11:27:29.886Z,44.64
2022-08-29T11:28:25.365Z,45.67
2022-08-29T11:29:20.848Z,45.84
2022-08-29T11:30:16.246Z,46.79
2022-08-29T11:31:11.967Z,46.25
2022-08-29T11:32:07.108Z,44.68
2022-08-29T11:33:03.426Z,44.90
2022-08-29T11:33:58.238Z,47.42
2022-08-29T11:34:53.529Z,46.39
2022-08-29T11:35:49.047Z,45.61
2022-08-29T11:36:44.682Z,44.38
2022-08-29T11:37:40.057Z,44.29
2022-08-29T11:38:36.192Z,45.41
2022-08-29T11:39:31.254Z,45.92
2022-08-29T11:41:27.313Z,46.94
2022-08-29T11:42:49.825Z,48.17
2022-08-29T11:43:14.266Z,47.70
2022-08-29T11:44:08.719Z,47.61
2022-08-29T11:45:04.245Z,46.82
2022-08-29T11:45:59.776Z,45.69
2022-08-29T11:46:56.198Z,46.26
2022-08-29T11:47:50.821Z,44.74
2022-08-29T11:48:47.333Z,44.65
2022-08-29T11:49:41.635Z,44.22
2022-08-29T11:50:37.318Z,44.14
2022-08-29T11:51:32.826Z,43.06
2022-08-29T11:52:28.380Z,45.03
2022-08-29T11:53:23.933Z,45.08
2022-08-29T11:54:19.462Z,45.71
2022-08-29T11:55:16.187Z,45.18
2022-08-29T11:56:10.606Z,45.58